Time;durP1;ratioP1;P1;durP2;ratioP2;P2;SDS_P1;SDS_P2;PMS_P1;PMS_P2;Temp;Humidity;BMP_temperature;BMP_pressure;BME280_temperature;BME280_humidity;BME280_pressure;Samples;Min_cycle;Max_cycle;Signal;HPM_P1;HPM_P2
2022/07/29 00:00:07;;;;;;;6.28;2.35;;;;;;;15.89;63.81;101541.38;5095036;28;20027;-46
2022/07/29 00:02:33;;;;;;;8.07;2.55;;;;;;;15.88;63.60;101545.69;5094842;28;20383;-45
2022/07/29 00:04:58;;;;;;;6.30;2.85;;;;;;;15.87;63.76;101541.34;5094660;28;20467;-45
2022/07/29 00:07:23;;;;;;;9.80;2.55;;;;;;;15.86;64.31;101541.31;5094856;28;20063;-45
2022/07/29 00:09:49;;;;;;;4.68;2.20;;;;;;;15.87;63.81;101548.25;5094748;28;20059;-45
2022/07/29 00:12:14;;;;;;;6.25;2.28;;;;;;;15.89;63.82;101543.97;5094604;28;20028;-48
2022/07/29 00:14:39;;;;;;;9.10;2.25;;;;;;;15.90;63.25;101543.13;5094676;28;20034;-45
2022/07/29 00:17:05;;;;;;;5.13;2.25;;;;;;;15.89;64.30;101546.56;5095007;28;20478;-46
2022/07/29 00:19:30;;;;;;;9.05;2.45;;;;;;;15.87;64.77;101548.25;5094462;28;20040;-45
2022/07/29 00:21:55;;;;;;;6.18;2.47;;;;;;;15.84;65.09;101543.91;5094587;28;20046;-45
2022/07/29 00:24:20;;;;;;;8.20;2.70;;;;;;;15.85;64.48;101534.34;5093917;28;20067;-44
2022/07/29 00:26:46;;;;;;;4.32;2.42;;;;;;;15.80;64.98;101532.53;5094153;28;20027;-45
2022/07/29 00:29:11;;;;;;;6.05;2.30;;;;;;;15.78;65.23;101523.81;5094360;28;20051;-44
2022/07/29 00:31:36;;;;;;;8.27;2.72;;;;;;;15.77;65.38;101527.25;5094226;28;20057;-44
2022/07/29 00:34:02;;;;;;;7.55;2.58;;;;;;;15.77;65.33;101527.25;5094388;28;20020;-44
2022/07/29 00:36:27;;;;;;;7.72;2.50;;;;;;;15.77;65.35;101527.25;5094126;28;20027;-44
2022/07/29 00:38:53;;;;;;;7.32;2.83;;;;;;;15.75;65.54;101526.34;5093948;28;20016;-45
2022/07/29 00:41:18;;;;;;;8.98;2.10;;;;;;;15.77;65.48;101526.38;5094234;28;20543;-44
2022/07/29 00:43:44;;;;;;;9.25;2.53;;;;;;;15.76;65.64;101535.03;5094194;28;20111;-45
2022/07/29 00:46:10;;;;;;;5.28;2.47;;;;;;;15.76;65.54;101535.91;5094025;28;20020;-49
2022/07/29 00:48:36;;;;;;;8.88;2.38;;;;;;;15.78;65.58;101536.81;5093849;28;20047;-46
2022/07/29 00:51:03;;;;;;;6.60;2.25;;;;;;;15.86;65.82;101549.97;5094203;28;20020;-44
2022/07/29 00:53:29;;;;;;;;;;;;;;;15.95;64.10;101554.47;5093808;28;20460;-47
2022/07/29 00:55:55;;;;;;;4.93;2.30;;;;;;;15.99;64.96;101564.09;5093777;28;20029;-44
2022/07/29 00:58:21;;;;;;;7.50;2.47;;;;;;;16.00;64.85;101564.94;5094276;28;20478;-47
2022/07/29 01:00:46;;;;;;;6.88;2.60;;;;;;;16.03;64.26;101571.09;5093362;28;20016;-43
2022/07/29 01:03:12;;;;;;;5.60;2.75;;;;;;;16.06;64.24;101583.28;5093888;28;20510;-47
2022/07/29 01:05:39;;;;;;;8.05;2.42;;;;;;;16.07;64.00;101583.28;5093810;28;20043;-44
2022/07/29 01:08:05;;;;;;;4.72;2.33;;;;;;;16.13;63.62;101587.75;5093373;28;20054;-43
2022/07/29 01:10:30;;;;;;;6.05;2.58;;;;;;;16.14;63.14;101568.69;5093705;28;20414;-44
2022/07/29 01:12:59;;;;;;;7.68;2.40;;;;;;;16.15;63.70;101577.38;5093962;28;20034;-44
2022/07/29 01:15:24;;;;;;;7.07;2.70;;;;;;;16.03;65.19;101558.09;5093192;28;20495;-45
2022/07/29 01:18:16;;;;;;;6.03;2.17;;;;;;;16.04;65.21;101553.78;5093514;28;20060;-44
2022/07/29 01:21:15;;;;;;;8.02;2.83;;;;;;;15.97;65.28;101539.78;5093370;28;20542;-44
2022/07/29 01:23:58;;;;;;;6.10;2.80;;;;;;;15.82;67.17;101526.53;5093189;28;20107;-47
2022/07/29 01:26:48;;;;;;;6.10;2.95;;;;;;;15.67;68.69;101503.66;5093709;28;20036;-44
2022/07/29 01:29:18;;;;;;;9.07;3.40;;;;;;;15.43;71.82;101502.34;5093322;28;20024;-45
2022/07/29 01:32:13;;;;;;;9.93;2.92;;;;;;;15.37;70.72;101510.88;5092935;28;20456;-47
2022/07/29 01:34:52;;;;;;;10.48;4.03;;;;;;;15.21;72.63;101503.59;5093260;28;20024;-45
2022/07/29 01:37:57;;;;;;;5.50;2.92;;;;;;;15.14;71.44;101498.31;5091946;28;20063;-44
2022/07/29 01:40:46;;;;;;;9.32;3.70;;;;;;;15.02;73.13;101490.25;5071903;28;20040;-44
2022/07/29 01:43:19;;;;;;;8.75;3.90;;;;;;;14.84;76.19;101477.75;5092584;28;20501;-44
2022/07/29 01:45:57;;;;;;;10.00;3.53;;;;;;;14.75;75.97;101473.22;5093039;28;20032;-44
2022/07/29 01:48:27;;;;;;;9.10;3.60;;;;;;;14.62;76.33;101460.78;5093438;28;20035;-48
2022/07/29 01:51:04;;;;;;;9.30;3.58;;;;;;;14.60;76.94;101472.84;5092678;28;20025;-44
2022/07/29 01:53:35;;;;;;;7.15;3.65;;;;;;;14.66;77.79;101473.00;5092961;28;20024;-43
2022/07/29 01:56:03;;;;;;;8.70;4.03;;;;;;;14.58;77.15;101469.34;5092913;28;20028;-44
2022/07/29 01:58:30;;;;;;;7.50;3.63;;;;;;;14.47;78.93;101472.56;5092712;28;20521;-44
2022/07/29 02:00:58;;;;;;;6.95;4.18;;;;;;;14.40;79.36;101467.19;5093169;28;20031;-45
2022/07/29 02:03:24;;;;;;;7.60;3.75;;;;;;;14.32;80.23;101461.84;5092462;28;20106;-44
2022/07/29 02:05:52;;;;;;;8.77;4.32;;;;;;;14.26;80.45;101456.50;5092726;28;20451;-43
2022/07/29 02:08:19;;;;;;;7.18;4.43;;;;;;;14.25;80.14;101444.34;5092951;28;20016;-44
2022/07/29 02:10:45;;;;;;;9.73;4.40;;;;;;;14.22;81.22;101452.94;5092245;28;20383;-44
2022/07/29 02:13:13;;;;;;;11.55;4.90;;;;;;;14.21;80.54;101448.59;5092977;28;20273;-44
2022/07/29 02:15:41;;;;;;;9.30;4.88;;;;;;;14.24;80.28;101452.97;5092779;28;20036;-45
2022/07/29 02:18:15;;;;;;;9.70;4.68;;;;;;;14.27;79.67;101453.06;5092512;28;20033;-46
2022/07/29 02:20:46;;;;;;;9.45;4.80;;;;;;;14.29;80.28;101453.97;5092426;28;20016;-46
2022/07/29 02:23:14;;;;;;;11.27;4.55;;;;;;;14.29;80.49;101443.59;5093292;28;20036;-45
2022/07/29 02:25:42;;;;;;;9.20;4.53;;;;;;;14.28;80.48;101449.59;5092193;28;20059;-44
2022/07/29 02:28:08;;;;;;;10.73;4.10;;;;;;;14.25;80.96;101439.19;5092760;28;20033;-44
2022/07/29 02:30:38;;;;;;;9.40;4.15;;;;;;;14.38;79.46;101440.34;5092507;28;20427;-46
2022/07/29 02:33:06;;;;;;;7.03;3.90;;;;;;;14.48;78.49;101448.34;5092205;28;20386;-45
2022/07/29 02:35:31;;;;;;;12.43;5.25;;;;;;;14.57;78.57;101452.03;5092282;28;20028;-44
2022/07/29 02:40:42;;;;;;;7.97;4.28;;;;;;;14.51;79.30;101465.72;5092585;28;20058;-44
2022/07/29 02:43:09;;;;;;;8.60;4.30;;;;;;;14.58;78.28;101466.75;5092531;28;20044;-44
2022/07/29 02:45:34;;;;;;;10.00;3.97;;;;;;;14.55;78.58;101449.41;5092042;28;20023;-45
2022/07/29 02:48:07;;;;;;;9.15;4.32;;;;;;;14.36;81.06;101450.69;5093953;28;20277;-46
2022/07/29 02:50:36;;;;;;;9.93;4.90;;;;;;;14.22;82.41;101452.06;5096622;28;20028;-47
2022/07/29 02:53:17;;;;;;;8.73;4.90;;;;;;;14.09;83.31;101451.75;5096202;28;20045;-45
2022/07/29 02:55:51;;;;;;;7.85;4.47;;;;;;;14.04;83.10;101450.78;5096151;28;20047;-44
2022/07/29 02:58:23;;;;;;;7.85;4.15;;;;;;;13.99;82.82;101447.19;5096383;28;20031;-44
2022/07/29 03:00:51;;;;;;;7.40;4.15;;;;;;;13.97;82.83;101444.56;5095778;28;20035;-46
2022/07/29 03:03:18;;;;;;;8.13;4.90;;;;;;;13.91;82.87;101440.94;5096209;28;20049;-44
2022/07/29 03:05:44;;;;;;;9.55;4.60;;;;;;;13.91;82.64;101443.53;5095941;28;20494;-44
2022/07/29 03:08:11;;;;;;;9.18;4.72;;;;;;;13.88;82.50;101448.63;5095838;28;20028;-44
2022/07/29 03:10:40;;;;;;;12.18;4.47;;;;;;;13.98;82.10;101461.88;5095698;28;20081;-44
2022/07/29 03:13:07;;;;;;;5.85;4.00;;;;;;;14.05;82.14;101460.31;5096234;28;20046;-44
2022/07/29 03:15:33;;;;;;;10.60;4.40;;;;;;;14.03;81.67;101459.38;5095547;28;20039;-44
2022/07/29 03:17:59;;;;;;;9.98;4.07;;;;;;;13.99;82.21;101455.84;5095938;28;20072;-44
2022/07/29 03:20:25;;;;;;;10.32;4.60;;;;;;;13.92;82.79;101461.72;5095664;28;20062;-44
2022/07/29 03:22:51;;;;;;;11.40;4.40;;;;;;;13.91;82.64;101454.75;5095542;28;20219;-45
2022/07/29 03:25:19;;;;;;;7.40;4.00;;;;;;;13.91;81.61;101464.25;5095987;28;20024;-43
2022/07/29 03:27:45;;;;;;;11.77;4.53;;;;;;;13.94;81.74;101472.09;5095073;28;20202;-46
2022/07/29 03:30:12;;;;;;;7.40;4.13;;;;;;;13.91;82.43;101453.91;5095819;28;20024;-44
2022/07/29 03:32:38;;;;;;;8.68;4.32;;;;;;;13.93;82.68;101459.97;5095728;28;20035;-45
2022/07/29 03:35:04;;;;;;;10.45;4.80;;;;;;;13.92;82.59;101461.72;5095459;28;20016;-46
2022/07/29 03:37:30;;;;;;;8.48;4.50;;;;;;;13.92;82.76;101460.84;5095475;28;20035;-45
2022/07/29 03:39:57;;;;;;;12.85;4.68;;;;;;;13.92;82.22;101468.63;5095612;28;20032;-44
2022/07/29 03:42:25;;;;;;;8.97;4.60;;;;;;;13.93;82.36;101479.03;5094885;28;20433;-48
2022/07/29 03:44:52;;;;;;;7.88;4.13;;;;;;;13.92;82.52;101466.88;5095354;28;20023;-44
2022/07/29 03:47:20;;;;;;;14.48;4.55;;;;;;;13.90;83.26;101465.09;5095432;28;20525;-44
2022/07/29 03:49:48;;;;;;;9.38;4.40;;;;;;;13.92;82.58;101459.13;5094832;28;20035;-46
2022/07/29 03:52:14;;;;;;;12.25;4.97;;;;;;;13.92;82.52;101463.44;5095240;28;20024;-44
2022/07/29 03:54:39;;;;;;;9.07;4.60;;;;;;;14.03;82.20;101472.34;5094906;28;20028;-48
2022/07/29 03:57:06;;;;;;;8.93;4.82;;;;;;;14.02;82.03;101468.00;5094946;28;20031;-44
2022/07/29 03:59:33;;;;;;;10.18;5.00;;;;;;;14.02;82.07;101473.19;5093974;28;20024;-43
2022/07/29 04:02:01;;;;;;;10.07;4.68;;;;;;;13.96;82.27;101466.13;5095423;28;20024;-44
2022/07/29 04:04:26;;;;;;;9.02;4.70;;;;;;;13.91;82.80;101448.72;5094497;28;20024;-44
2022/07/29 04:06:51;;;;;;;10.20;5.15;;;;;;;13.87;82.75;101452.06;5094828;28;20031;-44
2022/07/29 04:09:17;;;;;;;10.38;4.95;;;;;;;13.78;83.80;101453.56;5095030;28;20422;-44
2022/07/29 04:11:43;;;;;;;7.90;4.57;;;;;;;13.71;84.67;101456.84;5094372;28;20036;-44
2022/07/29 04:14:08;;;;;;;9.70;5.03;;;;;;;13.67;84.35;101452.41;5094875;28;20039;-44
2022/07/29 04:16:34;;;;;;;11.65;5.25;;;;;;;13.65;84.58;101454.09;5094834;28;20024;-43
2022/07/29 04:18:59;;;;;;;9.40;4.78;;;;;;;13.62;84.92;101456.59;5094109;28;20019;-44
2022/07/29 04:21:24;;;;;;;10.95;5.28;;;;;;;13.61;85.04;101444.50;5094755;28;20024;-44
2022/07/29 04:23:50;;;;;;;12.82;4.93;;;;;;;13.59;85.04;101446.16;5094108;28;20024;-43
2022/07/29 04:26:19;;;;;;;8.80;4.70;;;;;;;13.62;84.57;101456.59;5094683;28;20023;-44
2022/07/29 04:28:45;;;;;;;9.07;4.50;;;;;;;13.68;84.27;101459.34;5094704;28;20134;-44
2022/07/29 04:31:11;;;;;;;13.20;6.15;;;;;;;13.66;84.71;101443.78;5094224;28;20484;-45
2022/07/29 04:33:37;;;;;;;9.80;5.07;;;;;;;13.64;85.34;101454.94;5094193;28;20115;-43
2022/07/29 04:36:02;;;;;;;12.05;5.53;;;;;;;13.66;85.20;101464.50;5094611;28;20052;-46
2022/07/29 04:38:27;;;;;;;12.13;4.93;;;;;;;13.66;85.14;101458.44;5093753;28;20032;-46
2022/07/29 04:40:53;;;;;;;8.63;5.20;;;;;;;13.70;85.34;101465.47;5094297;28;20036;-46
2022/07/29 04:43:18;;;;;;;11.05;5.70;;;;;;;13.72;85.39;101471.53;5094507;28;20040;-44
2022/07/29 04:45:43;;;;;;;8.85;4.82;;;;;;;13.74;85.16;101472.47;5093834;28;20846;-43
2022/07/29 04:48:09;;;;;;;9.98;5.93;;;;;;;13.78;85.44;101481.22;5094216;28;20024;-44
2022/07/29 04:50:37;;;;;;;8.00;5.25;;;;;;;13.77;85.95;101475.13;5094058;28;20020;-46
2022/07/29 04:53:03;;;;;;;13.25;5.70;;;;;;;13.81;85.27;101473.50;5093755;28;20041;-44
2022/07/29 04:55:28;;;;;;;10.57;5.88;;;;;;;13.82;85.55;101473.53;5094055;28;20024;-44
2022/07/29 04:57:53;;;;;;;12.68;6.07;;;;;;;13.83;85.24;101472.72;5094224;28;20028;-43
2022/07/29 05:00:18;;;;;;;12.48;6.35;;;;;;;13.85;85.89;101471.88;5093528;28;20055;-45
2022/07/29 05:02:44;;;;;;;12.27;6.57;;;;;;;13.85;85.91;101469.28;5093526;28;20035;-44
2022/07/29 05:05:09;;;;;;;10.20;6.10;;;;;;;13.86;85.07;101473.63;5093935;28;20026;-45
2022/07/29 05:07:34;;;;;;;10.55;6.57;;;;;;;13.88;84.93;101484.91;5093073;28;20024;-44
2022/07/29 05:10:00;;;;;;;11.38;6.25;;;;;;;13.96;84.79;101498.94;5093716;28;20016;-43
2022/07/29 05:12:25;;;;;;;11.95;6.28;;;;;;;14.00;84.35;101517.19;5093959;28;20102;-43
2022/07/29 05:14:51;;;;;;;12.07;6.38;;;;;;;14.08;84.01;101525.16;5093434;28;20055;-44
2022/07/29 05:17:16;;;;;;;12.63;6.90;;;;;;;14.08;84.50;101517.41;5093604;28;20028;-46
2022/07/29 05:19:42;;;;;;;10.35;6.80;;;;;;;14.08;84.15;101519.13;5093473;28;20028;-43
2022/07/29 05:22:07;;;;;;;15.50;7.00;;;;;;;14.11;84.62;101516.59;5092871;28;20027;-45
2022/07/29 05:24:32;;;;;;;12.35;6.95;;;;;;;14.11;84.58;101512.31;5093478;28;20039;-46
2022/07/29 05:26:57;;;;;;;10.95;7.18;;;;;;;14.15;83.44;101513.25;5093710;28;20386;-44
2022/07/29 05:29:23;;;;;;;11.82;7.13;;;;;;;14.17;83.85;101514.16;5092824;28;20032;-44
2022/07/29 05:31:48;;;;;;;10.23;6.88;;;;;;;14.24;83.76;101515.19;5093324;28;20051;-45
2022/07/29 05:34:13;;;;;;;12.35;7.53;;;;;;;14.25;83.30;101516.94;5092898;28;20028;-47
2022/07/29 05:36:39;;;;;;;13.98;7.00;;;;;;;14.26;83.19;101518.72;5092809;28;20035;-45
2022/07/29 05:39:04;;;;;;;11.77;7.30;;;;;;;14.31;82.54;101515.38;5093617;28;20035;-44
2022/07/29 05:41:32;;;;;;;12.40;7.43;;;;;;;14.33;82.80;101515.41;5092667;28;20513;-43
2022/07/29 05:43:58;;;;;;;10.30;7.03;;;;;;;14.36;83.03;101509.44;5093216;28;20024;-45
2022/07/29 05:46:23;;;;;;;16.33;7.75;;;;;;;14.36;82.49;101512.91;5093476;28;20022;-44
2022/07/29 05:48:48;;;;;;;11.25;7.75;;;;;;;14.40;82.86;101514.75;5092425;28;20024;-43
2022/07/29 05:51:14;;;;;;;12.65;6.95;;;;;;;14.41;82.61;101516.50;5093035;28;20471;-43
2022/07/29 05:53:39;;;;;;;12.48;7.40;;;;;;;14.47;82.59;101520.94;5093144;28;20016;-44
2022/07/29 05:56:05;;;;;;;18.02;8.18;;;;;;;14.56;82.83;101522.91;5092716;28;20050;-44
2022/07/29 05:58:30;;;;;;;13.18;7.60;;;;;;;14.62;82.41;101520.44;5092925;28;20046;-44
2022/07/29 06:00:58;;;;;;;11.73;7.22;;;;;;;14.71;82.44;101517.25;5093003;28;20077;-44
2022/07/29 06:03:25;;;;;;;13.82;8.27;;;;;;;14.76;82.72;101511.31;5092513;28;20035;-44
2022/07/29 06:05:50;;;;;;;12.50;7.65;;;;;;;14.81;82.62;101514.88;5092640;28;20024;-44
2022/07/29 06:08:15;;;;;;;13.30;8.05;;;;;;;14.89;82.38;101509.00;5092967;28;20111;-44
2022/07/29 06:10:41;;;;;;;14.80;7.90;;;;;;;14.93;81.52;101510.81;5092433;28;20032;-44
2022/07/29 06:13:06;;;;;;;13.70;7.57;;;;;;;14.97;81.85;101512.63;5092923;28;20024;-44
2022/07/29 06:15:31;;;;;;;11.70;7.50;;;;;;;15.05;81.56;101518.00;5092802;28;20043;-44
2022/07/29 06:17:56;;;;;;;13.82;7.57;;;;;;;15.08;81.18;101518.94;5092643;28;20032;-44
2022/07/29 06:20:22;;;;;;;11.15;8.10;;;;;;;15.14;80.98;101513.00;5092620;28;20028;-43
2022/07/29 06:22:47;;;;;;;10.77;8.13;;;;;;;15.22;79.90;101518.34;5093814;28;20020;-45
2022/07/29 06:25:12;;;;;;;12.85;7.60;;;;;;;15.27;79.90;101524.50;5096536;28;20464;-47
2022/07/29 06:27:38;;;;;;;12.05;7.43;;;;;;;15.40;80.54;101518.75;5096609;28;20028;-44
2022/07/29 06:30:06;;;;;;;11.77;7.57;;;;;;;15.44;78.92;101523.16;5097040;28;20028;-44
2022/07/29 06:32:32;;;;;;;10.60;7.25;;;;;;;15.42;78.25;101519.63;5095794;28;20394;-44
2022/07/29 06:34:57;;;;;;;14.70;7.45;;;;;;;15.42;78.28;101517.03;5096817;28;20020;-44
2022/07/29 06:37:22;;;;;;;14.93;7.97;;;;;;;15.55;78.94;101512.09;5096248;28;20032;-45
2022/07/29 06:39:47;;;;;;;10.15;7.28;;;;;;;15.64;78.11;101513.13;5096407;28;20471;-45
2022/07/29 06:42:13;;;;;;;11.98;7.13;;;;;;;15.71;77.65;101510.66;5096679;28;20089;-43
2022/07/29 06:44:38;;;;;;;11.95;7.18;;;;;;;15.78;77.17;101507.34;5095976;28;20040;-44
2022/07/29 06:47:03;;;;;;;10.90;7.05;;;;;;;15.90;77.25;101514.53;5096438;28;20486;-44
2022/07/29 06:49:28;;;;;;;12.77;6.40;;;;;;;16.00;76.64;101519.03;5096612;28;20031;-43
2022/07/29 06:51:55;;;;;;;9.35;6.55;;;;;;;16.12;76.80;101529.66;5095984;28;20032;-43
2022/07/29 06:54:21;;;;;;;10.32;6.97;;;;;;;16.20;75.77;101527.19;5096478;28;20031;-45
2022/07/29 06:56:46;;;;;;;14.00;6.63;;;;;;;16.31;75.88;101529.97;5096258;28;20031;-42
2022/07/29 06:59:12;;;;;;;12.75;6.90;;;;;;;16.41;74.50;101525.78;5095860;28;20367;-44
2022/07/29 07:01:40;;;;;;;15.30;7.43;;;;;;;16.44;75.01;101526.72;5095989;28;20032;-43
2022/07/29 07:04:06;;;;;;;12.52;7.82;;;;;;;16.44;75.26;101525.84;5096282;28;20116;-43
2022/07/29 07:06:31;;;;;;;12.00;7.20;;;;;;;16.40;75.12;101524.94;5095740;28;20459;-46
2022/07/29 07:08:56;;;;;;;14.32;7.00;;;;;;;16.37;74.25;101535.28;5096207;28;20024;-44
2022/07/29 07:11:22;;;;;;;12.70;7.53;;;;;;;16.35;74.86;101534.38;5096331;28;20030;-46
2022/07/29 07:13:47;;;;;;;14.27;7.57;;;;;;;16.36;76.08;101543.94;5095306;28;20102;-48
2022/07/29 07:16:12;;;;;;;14.57;7.82;;;;;;;16.27;75.08;101539.44;5095932;28;20107;-42
2022/07/29 07:18:38;;;;;;;12.25;7.40;;;;;;;16.18;75.29;101535.81;5095739;28;20055;-43
2022/07/29 07:21:04;;;;;;;11.80;7.43;;;;;;;16.09;76.94;101540.00;5095538;28;20036;-44
2022/07/29 07:23:30;;;;;;;10.77;7.60;;;;;;;15.96;76.23;101532.84;5095770;28;20038;-43
2022/07/29 07:25:55;;;;;;;12.40;7.57;;;;;;;15.87;76.82;101532.66;5095987;28;20028;-44
2022/07/29 07:28:20;;;;;;;11.43;7.55;;;;;;;15.78;76.83;101534.19;5095273;28;20024;-45
2022/07/29 07:30:46;;;;;;;13.70;7.70;;;;;;;15.79;77.47;101533.38;5095686;28;20023;-44
2022/07/29 07:33:11;;;;;;;12.23;7.88;;;;;;;15.77;77.43;101537.63;5095738;28;20049;-46
2022/07/29 07:35:36;;;;;;;11.38;7.95;;;;;;;15.80;77.66;101537.72;5094692;28;20459;-44
2022/07/29 07:38:01;;;;;;;14.15;8.48;;;;;;;15.86;76.93;101529.19;5095799;28;20032;-44
2022/07/29 07:40:27;;;;;;;13.43;8.73;;;;;;;15.93;76.58;101540.56;5095632;28;20021;-47
2022/07/29 07:42:52;;;;;;;13.77;9.48;;;;;;;16.03;77.56;101539.03;5094607;28;20047;-44
2022/07/29 07:45:17;;;;;;;12.93;8.68;;;;;;;16.06;77.21;101539.97;5095696;28;20020;-43
2022/07/29 07:47:43;;;;;;;10.98;7.97;;;;;;;16.23;76.94;101536.75;5094872;28;20031;-43
2022/07/29 07:50:11;;;;;;;11.90;8.00;;;;;;;16.44;76.35;101536.25;5095196;28;20697;-44
2022/07/29 07:52:47;;;;;;;11.98;8.00;;;;;;;16.64;75.97;101539.16;5095236;28;20027;-48
2022/07/29 07:55:12;;;;;;;14.80;7.65;;;;;;;16.76;75.11;101531.56;5095101;28;20048;-48
2022/07/29 07:57:38;;;;;;;11.48;7.10;;;;;;;16.83;73.56;101542.06;5094841;28;20070;-47
2022/07/29 08:00:04;;;;;;;12.40;7.18;;;;;;;16.98;73.95;101537.13;5095309;28;20024;-48
2022/07/29 08:02:29;;;;;;;11.25;7.20;;;;;;;17.15;72.66;101541.69;5094475;28;20055;-43
2022/07/29 08:04:54;;;;;;;13.80;6.93;;;;;;;17.31;73.07;101551.44;5095009;28;20379;-43
2022/07/29 08:07:20;;;;;;;11.57;7.40;;;;;;;17.51;73.51;101545.63;5095101;28;20102;-43
2022/07/29 08:09:45;;;;;;;12.27;7.60;;;;;;;17.59;70.70;101550.03;5094464;28;20017;-46
2022/07/29 08:12:10;;;;;;;15.98;7.60;;;;;;;17.74;71.13;101549.38;5094995;28;20016;-43
2022/07/29 08:14:35;;;;;;;13.57;7.00;;;;;;;17.86;69.34;101545.16;5094785;28;20464;-44
2022/07/29 08:17:01;;;;;;;11.85;6.75;;;;;;;18.02;69.72;101554.88;5094426;28;20027;-43
2022/07/29 08:19:27;;;;;;;11.02;6.40;;;;;;;18.15;69.18;101549.81;5094750;28;20481;-44
2022/07/29 08:21:53;;;;;;;11.90;6.63;;;;;;;18.32;69.52;101550.84;5094791;28;20078;-43
2022/07/29 08:27:02;;;;;;;10.27;6.30;;;;;;;18.52;65.95;101550.13;5094683;28;20031;-43
2022/07/29 08:29:27;;;;;;;10.73;6.40;;;;;;;18.55;65.73;101555.34;5094538;28;20379;-44
2022/07/29 08:31:52;;;;;;;9.88;7.03;;;;;;;18.60;65.66;101556.28;5093875;28;20459;-44
2022/07/29 08:34:18;;;;;;;12.65;6.28;;;;;;;18.73;65.37;101560.75;5094599;28;20066;-44
2022/07/29 08:36:43;;;;;;;9.90;6.20;;;;;;;18.92;66.29;101559.13;5094430;28;20475;-44
2022/07/29 08:39:08;;;;;;;12.18;6.88;;;;;;;19.10;65.84;101556.66;5093942;28;20056;-44
2022/07/29 08:41:34;;;;;;;12.05;5.82;;;;;;;19.26;64.28;101555.84;5094060;28;20044;-43
2022/07/29 08:44:00;;;;;;;14.75;6.30;;;;;;;19.40;63.22;101553.28;5093768;28;20086;-43
2022/07/29 08:46:25;;;;;;;13.73;6.38;;;;;;;19.48;62.72;101556.81;5093533;28;20028;-44
2022/07/29 08:48:50;;;;;;;9.43;6.05;;;;;;;19.61;63.30;101562.94;5094436;28;20059;-44
2022/07/29 08:51:19;;;;;;;15.30;6.38;;;;;;;19.71;62.99;101556.88;5093884;28;20022;-43
2022/07/29 08:53:48;;;;;;;14.07;6.50;;;;;;;19.80;61.71;101557.78;5093855;28;20028;-45
2022/07/29 08:56:16;;;;;;;9.43;6.18;;;;;;;19.89;62.66;101557.84;5094192;28;20558;-44
2022/07/29 08:58:41;;;;;;;14.73;6.78;;;;;;;20.03;62.56;101550.03;5093370;28;20058;-46
2022/07/29 09:01:08;;;;;;;13.77;6.68;;;;;;;20.13;63.81;101556.13;5094200;28;20047;-44
2022/07/29 09:03:36;;;;;;;12.23;6.00;;;;;;;20.23;61.61;101552.66;5094043;28;20039;-44
2022/07/29 09:06:01;;;;;;;;;;;;;;;20.49;63.42;101551.78;5094034;28;20020;-44
2022/07/29 09:08:28;;;;;;;13.15;6.00;;;;;;;20.55;61.24;101550.06;5093789;28;19957;-44
2022/07/29 09:10:55;;;;;;;12.00;5.97;;;;;;;20.72;61.16;101552.69;5093871;28;20061;-44
2022/07/29 09:13:21;;;;;;;;;;;;;;;20.95;62.34;101548.28;5093814;28;20039;-44
2022/07/29 09:15:46;;;;;;;12.30;6.00;;;;;;;21.09;58.41;101545.63;5093635;28;19939;-43
2022/07/29 09:18:12;;;;;;;12.90;6.30;;;;;;;21.23;58.51;101543.81;5093764;28;20052;-44
2022/07/29 09:23:22;;;;;;;11.43;5.65;;;;;;;21.55;57.21;101540.25;5093876;28;20078;-44
2022/07/29 09:25:48;;;;;;;9.27;5.40;;;;;;;21.76;55.88;101543.63;5093406;28;20028;-45
2022/07/29 09:28:18;;;;;;;9.27;4.88;;;;;;;21.92;56.51;101544.38;5093063;28;20363;-46
2022/07/29 09:30:55;;;;;;;12.57;5.47;;;;;;;21.97;55.59;101553.97;5093510;28;20032;-43
2022/07/29 09:33:22;;;;;;;9.23;5.72;;;;;;;22.03;52.91;101555.69;5093081;28;20107;-45
2022/07/29 09:36:00;;;;;;;7.63;4.65;;;;;;;22.06;53.37;101557.44;5093082;28;20060;-43
2022/07/29 09:38:25;;;;;;;11.00;5.00;;;;;;;22.13;53.17;101559.09;5093254;28;20031;-46
2022/07/29 09:40:58;;;;;;;9.18;4.57;;;;;;;22.36;54.50;101561.59;5092881;28;20214;-47
2022/07/29 09:43:23;;;;;;;10.82;5.50;;;;;;;22.58;54.43;101559.69;5093163;28;20115;-43
2022/07/29 09:45:48;;;;;;;12.55;5.78;;;;;;;22.84;54.61;101569.06;5092947;28;20020;-44
2022/07/29 09:48:19;;;;;;;10.65;4.75;;;;;;;22.90;51.67;101571.59;5092849;28;20055;-47
2022/07/29 09:50:46;;;;;;;8.35;4.28;;;;;;;23.34;51.94;101569.41;5092636;28;20031;-45
2022/07/29 09:53:12;;;;;;;7.78;4.45;;;;;;;23.39;49.51;101557.06;5093135;28;20467;-44
2022/07/29 09:55:51;;;;;;;8.75;4.60;;;;;;;23.57;49.72;101563.00;5092151;28;20022;-44
2022/07/29 09:58:18;;;;;;;11.65;4.65;;;;;;;23.61;48.90;101565.53;5092255;28;20028;-43
2022/07/29 10:00:45;;;;;;;10.35;4.82;;;;;;;23.91;48.27;101560.78;5092782;28;20352;-45
2022/07/29 10:03:11;;;;;;;10.20;5.07;;;;;;;23.97;45.71;101558.03;5092242;28;20084;-44
2022/07/29 10:05:36;;;;;;;10.00;4.70;;;;;;;24.36;46.42;101561.84;5092648;28;20479;-47
2022/07/29 10:08:02;;;;;;;10.65;4.72;;;;;;;24.92;47.32;101556.47;5093125;28;20073;-45
2022/07/29 10:10:28;;;;;;;9.30;4.50;;;;;;;25.57;45.80;101561.34;5092228;28;20101;-43
2022/07/29 10:13:02;;;;;;;7.13;5.05;;;;;;;25.79;45.40;101558.22;5093010;28;20084;-44
2022/07/29 10:15:31;;;;;;;8.23;4.43;;;;;;;26.56;42.97;101563.44;5092359;28;20109;-46
2022/07/29 10:17:58;;;;;;;10.43;4.47;;;;;;;27.09;41.83;101557.66;5092732;28;20055;-45
2022/07/29 10:20:24;;;;;;;8.50;4.57;;;;;;;27.50;39.78;101552.97;5093065;28;20032;-44
2022/07/29 10:22:50;;;;;;;9.48;3.92;;;;;;;28.09;38.67;101556.44;5092456;28;20032;-45
2022/07/29 10:25:17;;;;;;;9.23;4.43;;;;;;;28.74;36.09;101554.25;5092800;28;20020;-44
2022/07/29 10:27:44;;;;;;;10.60;4.38;;;;;;;29.00;36.10;101552.44;5092606;28;20031;-44
2022/07/29 10:30:11;;;;;;;8.18;3.78;;;;;;;29.88;35.76;101555.31;5092384;28;20035;-46
2022/07/29 10:32:54;;;;;;;10.48;4.50;;;;;;;30.17;35.10;101553.25;5092095;28;20424;-48
2022/07/29 10:35:51;;;;;;;13.48;4.38;;;;;;;30.61;35.15;101559.44;5093022;28;20105;-47
2022/07/29 10:38:41;;;;;;;8.80;3.92;;;;;;;30.98;33.88;101561.31;5092181;28;20028;-44
2022/07/29 10:41:28;;;;;;;8.45;3.58;;;;;;;31.84;31.63;101561.81;5092747;28;20024;-45
2022/07/29 10:44:02;;;;;;;7.00;3.75;;;;;;;32.36;30.45;101557.50;5091997;28;20534;-45
2022/07/29 10:46:28;;;;;;;11.85;3.67;;;;;;;32.50;29.20;101562.13;5092440;28;20054;-46
2022/07/29 10:49:08;;;;;;;6.45;3.63;;;;;;;32.43;31.00;101556.22;5092512;28;20126;-44
2022/07/29 10:52:05;;;;;;;9.10;3.28;;;;;;;33.41;30.05;101557.28;5092016;28;20111;-46
2022/07/29 10:54:37;;;;;;;8.02;3.30;;;;;;;33.65;28.31;101551.53;5092553;28;20157;-42
2022/07/29 10:57:14;;;;;;;9.77;2.92;;;;;;;33.98;29.09;101547.88;5092421;28;20408;-43
2022/07/29 10:59:41;;;;;;;7.18;2.72;;;;;;;33.56;26.52;101552.03;5091434;28;20032;-45
2022/07/29 11:02:39;;;;;;;7.35;2.97;;;;;;;33.73;27.92;101553.75;5092680;28;20016;-43
2022/07/29 11:05:16;;;;;;;6.22;2.67;;;;;;;33.74;29.04;101551.00;5091998;28;20032;-42
2022/07/29 11:08:16;;;;;;;5.85;2.75;;;;;;;34.04;28.65;101541.31;5091973;28;20024;-43
2022/07/29 11:10:41;;;;;;;6.53;3.03;;;;;;;33.89;26.90;101543.91;5095939;28;20443;-45
2022/07/29 11:13:07;;;;;;;6.87;2.80;;;;;;;34.45;25.74;101546.88;5095421;28;20506;-42
2022/07/29 11:15:52;;;;;;;10.73;2.87;;;;;;;34.79;27.73;101542.13;5096010;28;20043;-45
2022/07/29 11:18:18;;;;;;;6.70;2.60;;;;;;;34.49;26.15;101535.97;5096113;28;20020;-45
2022/07/29 11:20:47;;;;;;;7.00;3.27;;;;;;;34.38;26.17;101545.53;5094991;28;20042;-42
2022/07/29 11:23:24;;;;;;;6.63;2.72;;;;;;;34.87;26.35;101548.84;5096097;28;20020;-42
2022/07/29 11:26:25;;;;;;;10.35;2.88;;;;;;;34.83;27.00;101542.78;5095435;28;20278;-42
2022/07/29 11:29:10;;;;;;;6.15;2.55;;;;;;;34.66;24.83;101543.84;5095448;28;20036;-43
2022/07/29 11:31:42;;;;;;;5.60;2.83;;;;;;;34.61;25.52;101540.59;5095776;28;20027;-42
2022/07/29 11:34:25;;;;;;;13.98;3.28;;;;;;;34.69;26.53;101542.78;5095158;28;20074;-43